createdAt,value
2018-12-31T00:00:44.344Z,10.63
2018-12-31T00:03:11.959Z,8.33
2018-12-31T00:05:39.530Z,10.97
2018-12-31T00:08:07.108Z,7.33
2018-12-31T00:10:34.697Z,7.20
2018-12-31T00:13:02.261Z,6.17
2018-12-31T00:15:30.633Z,5.77
2018-12-31T00:17:58.206Z,6.30
2018-12-31T00:20:25.775Z,8.38
2018-12-31T00:22:54.139Z,6.53
2018-12-31T00:25:21.746Z,6.60
2018-12-31T00:27:49.308Z,8.90
2018-12-31T00:30:16.882Z,6.70
2018-12-31T00:32:44.448Z,7.20
2018-12-31T00:35:12.395Z,6.17
2018-12-31T00:37:39.959Z,6.40
2018-12-31T00:40:07.523Z,6.13
2018-12-31T00:42:35.129Z,5.87
2018-12-31T00:45:03.003Z,6.07
2018-12-31T00:47:30.602Z,8.55
2018-12-31T00:49:58.186Z,7.33
2018-12-31T00:52:25.759Z,6.43
2018-12-31T00:54:53.350Z,6.10
2018-12-31T00:57:21.294Z,6.10
2018-12-31T00:59:48.890Z,7.75
2018-12-31T01:02:16.469Z,6.83
2018-12-31T01:04:44.071Z,6.50
2018-12-31T01:07:11.642Z,6.10
2018-12-31T01:09:39.948Z,6.07
2018-12-31T01:12:07.519Z,5.90
2018-12-31T01:14:35.906Z,6.63
2018-12-31T01:17:04.245Z,5.73
2018-12-31T01:19:31.825Z,6.20
2018-12-31T01:21:59.427Z,6.30
2018-12-31T01:24:27.789Z,5.93
2018-12-31T01:26:56.150Z,6.17
2018-12-31T01:29:23.736Z,6.30
2018-12-31T01:31:51.316Z,8.18
2018-12-31T01:34:18.894Z,8.52
2018-12-31T01:36:46.487Z,6.30
2018-12-31T01:39:14.142Z,6.53
2018-12-31T01:41:41.887Z,6.47
2018-12-31T01:44:09.226Z,5.80
2018-12-31T01:46:36.821Z,5.97
2018-12-31T01:49:04.394Z,5.87
2018-12-31T01:51:31.995Z,5.80
2018-12-31T01:53:59.565Z,5.30
2018-12-31T01:56:27.133Z,5.70
2018-12-31T01:58:54.729Z,5.70
2018-12-31T02:01:22.300Z,5.63
2018-12-31T02:03:49.909Z,6.43
2018-12-31T02:06:17.484Z,8.00
2018-12-31T02:08:45.052Z,6.80
2018-12-31T02:11:12.643Z,6.30
2018-12-31T02:13:40.215Z,6.03
2018-12-31T02:16:08.586Z,8.90
2018-12-31T02:18:36.157Z,7.70
2018-12-31T02:21:03.730Z,7.20
2018-12-31T02:23:31.332Z,7.47
2018-12-31T02:25:58.915Z,6.50
2018-12-31T02:28:26.518Z,7.00
2018-12-31T02:30:54.105Z,7.30
2018-12-31T02:33:21.684Z,8.23
2018-12-31T02:35:49.284Z,7.63
2018-12-31T02:38:16.859Z,7.47
2018-12-31T02:40:44.461Z,8.40
2018-12-31T02:43:12.053Z,10.10
2018-12-31T02:45:39.654Z,8.27
2018-12-31T02:48:07.996Z,7.60
2018-12-31T02:50:35.597Z,7.53
2018-12-31T02:53:03.936Z,7.67
2018-12-31T02:55:31.508Z,7.10
2018-12-31T02:57:59.465Z,7.53
2018-12-31T03:00:27.042Z,7.30
2018-12-31T03:02:54.609Z,7.33
2018-12-31T03:05:22.210Z,6.83
2018-12-31T03:07:50.551Z,10.07
2018-12-31T03:10:18.157Z,8.00
2018-12-31T03:12:45.722Z,7.60
2018-12-31T03:15:13.318Z,7.40
2018-12-31T03:17:40.891Z,7.87
2018-12-31T03:20:08.496Z,7.57
2018-12-31T03:22:36.070Z,9.67
2018-12-31T03:25:04.093Z,8.10
2018-12-31T03:27:31.669Z,7.13
2018-12-31T03:29:59.242Z,9.75
2018-12-31T03:32:40.587Z,7.87
2018-12-31T03:35:08.153Z,7.20
2018-12-31T03:37:36.128Z,7.30
2018-12-31T03:40:03.700Z,6.97
2018-12-31T03:42:31.271Z,9.27
2018-12-31T03:44:59.639Z,9.70
2018-12-31T03:47:27.212Z,8.17
2018-12-31T03:49:54.811Z,9.70
2018-12-31T03:52:22.375Z,7.47
2018-12-31T03:54:49.976Z,7.10
2018-12-31T03:57:17.549Z,7.47
2018-12-31T03:59:45.494Z,7.37
2018-12-31T04:02:13.073Z,6.73
2018-12-31T04:04:40.639Z,6.57
2018-12-31T04:07:08.238Z,8.52
2018-12-31T04:09:35.811Z,7.10
2018-12-31T04:12:03.420Z,7.37
2018-12-31T04:14:30.987Z,6.73
2018-12-31T04:16:58.580Z,9.02
2018-12-31T04:19:26.920Z,9.13
2018-12-31T04:21:54.884Z,7.70
2018-12-31T04:24:22.470Z,7.13
2018-12-31T04:26:50.046Z,8.90
2018-12-31T04:29:17.910Z,7.30
2018-12-31T04:31:46.248Z,7.07
2018-12-31T04:34:13.822Z,6.87
2018-12-31T04:36:41.418Z,6.90
2018-12-31T04:39:09.752Z,7.23
2018-12-31T04:41:37.345Z,6.20
2018-12-31T04:44:04.917Z,7.13
2018-12-31T04:46:33.271Z,6.70
2018-12-31T04:49:00.843Z,7.83
2018-12-31T04:51:28.440Z,7.10
2018-12-31T04:53:56.017Z,7.13
2018-12-31T04:56:23.587Z,6.67
2018-12-31T04:58:51.462Z,7.20
2018-12-31T05:01:19.026Z,7.07
2018-12-31T05:03:46.623Z,6.87
2018-12-31T05:06:14.192Z,6.40
2018-12-31T05:08:42.552Z,6.90
2018-12-31T05:11:10.122Z,6.63
2018-12-31T05:13:37.725Z,9.65
2018-12-31T05:16:05.298Z,6.87
2018-12-31T05:18:33.192Z,7.13
2018-12-31T05:21:00.765Z,9.30
2018-12-31T05:23:28.333Z,6.83
2018-12-31T05:25:55.946Z,8.70
2018-12-31T05:28:23.515Z,7.87
2018-12-31T05:30:51.121Z,9.00
2018-12-31T05:33:18.699Z,8.33
2018-12-31T05:35:46.257Z,9.03
2018-12-31T05:38:14.623Z,8.63
2018-12-31T05:40:42.204Z,10.45
2018-12-31T05:43:10.937Z,8.90
2018-12-31T05:45:38.518Z,8.30
2018-12-31T05:48:06.078Z,6.90
2018-12-31T05:50:33.673Z,7.37
2018-12-31T05:53:02.007Z,7.10
2018-12-31T05:55:29.615Z,7.57
2018-12-31T05:57:57.951Z,7.40
2018-12-31T06:00:25.564Z,6.83
2018-12-31T06:02:53.140Z,6.97
2018-12-31T06:05:20.734Z,6.80
2018-12-31T06:07:48.308Z,7.20
2018-12-31T06:10:15.900Z,6.77
2018-12-31T06:12:44.241Z,6.00
2018-12-31T06:15:11.808Z,6.77
2018-12-31T06:17:39.404Z,7.03
2018-12-31T06:20:07.743Z,7.00
2018-12-31T06:22:35.331Z,7.57
2018-12-31T06:25:02.917Z,7.07
2018-12-31T06:27:31.267Z,6.97
2018-12-31T06:29:58.840Z,7.43
2018-12-31T06:32:27.205Z,6.60
2018-12-31T06:34:54.767Z,6.67
2018-12-31T06:37:22.373Z,7.20
2018-12-31T06:39:49.951Z,9.33
2018-12-31T06:42:17.521Z,7.10
2018-12-31T06:44:45.115Z,8.07
2018-12-31T06:47:12.709Z,8.07
2018-12-31T06:49:40.638Z,10.15
2018-12-31T06:52:08.211Z,7.03
2018-12-31T06:54:35.779Z,7.77
2018-12-31T06:57:03.385Z,8.73
2018-12-31T06:59:30.966Z,7.67
2018-12-31T07:01:58.566Z,7.03
2018-12-31T07:04:26.146Z,8.00
2018-12-31T07:06:55.507Z,7.77
2018-12-31T07:09:23.076Z,7.33
2018-12-31T07:11:50.644Z,8.20
2018-12-31T07:14:18.240Z,8.00
2018-12-31T07:16:45.817Z,6.33
2018-12-31T07:19:13.407Z,6.43
2018-12-31T07:21:40.976Z,6.53
2018-12-31T07:24:08.926Z,5.87
2018-12-31T07:26:36.424Z,8.65
2018-12-31T07:29:03.996Z,8.63
2018-12-31T07:31:32.363Z,7.77
2018-12-31T07:33:59.934Z,7.50
2018-12-31T07:36:28.300Z,7.17
2018-12-31T07:38:55.871Z,6.93
2018-12-31T07:41:23.852Z,7.63
2018-12-31T07:43:52.200Z,7.93
2018-12-31T07:46:19.819Z,7.57
2018-12-31T07:48:47.412Z,6.57
2018-12-31T07:51:14.984Z,7.47
2018-12-31T07:53:42.584Z,10.45
2018-12-31T07:56:10.930Z,10.73
2018-12-31T07:58:38.531Z,7.87
2018-12-31T08:01:07.199Z,7.93
2018-12-31T08:03:35.053Z,9.20
2018-12-31T08:06:02.631Z,11.73
2018-12-31T08:08:30.973Z,9.40
2018-12-31T08:10:58.575Z,8.93
2018-12-31T08:13:26.925Z,9.30
2018-12-31T08:15:54.586Z,8.33
2018-12-31T08:18:22.130Z,7.93
2018-12-31T08:20:49.737Z,7.57
2018-12-31T08:23:17.312Z,7.40
2018-12-31T08:25:44.905Z,6.33
2018-12-31T08:28:12.485Z,6.80
2018-12-31T08:30:40.377Z,6.73
2018-12-31T08:33:07.956Z,6.53
2018-12-31T08:35:36.300Z,8.90
2018-12-31T08:38:03.903Z,7.17
2018-12-31T08:40:32.250Z,7.90
2018-12-31T08:42:59.865Z,6.83
2018-12-31T08:45:27.441Z,7.53
2018-12-31T08:47:55.078Z,7.20
2018-12-31T08:50:22.646Z,6.97
2018-12-31T08:52:50.211Z,8.00
2018-12-31T08:55:17.847Z,7.27
2018-12-31T08:57:45.385Z,6.63
2018-12-31T09:00:12.982Z,6.23
2018-12-31T09:02:41.315Z,7.20
2018-12-31T09:05:08.918Z,6.73
2018-12-31T09:07:37.253Z,6.77
2018-12-31T09:10:04.859Z,6.23
2018-12-31T09:12:32.442Z,6.33
2018-12-31T09:15:00.124Z,5.93
2018-12-31T09:17:27.613Z,6.27
2018-12-31T09:19:55.185Z,5.57
2018-12-31T09:22:22.786Z,6.13
2018-12-31T09:24:50.360Z,6.83
2018-12-31T09:27:18.245Z,7.03
2018-12-31T09:29:45.828Z,7.67
2018-12-31T09:32:13.800Z,10.00
2018-12-31T09:34:41.371Z,8.93
2018-12-31T09:37:08.939Z,8.27
2018-12-31T09:39:36.533Z,8.60
2018-12-31T09:42:04.106Z,7.37
2018-12-31T09:44:32.096Z,9.40
2018-12-31T09:47:00.064Z,9.50
2018-12-31T09:49:27.664Z,8.07
2018-12-31T09:51:55.233Z,7.87
2018-12-31T09:54:23.889Z,7.43
2018-12-31T09:56:51.848Z,7.60
2018-12-31T09:59:19.414Z,6.90
2018-12-31T10:01:47.006Z,7.43
2018-12-31T10:04:14.581Z,8.20
2018-12-31T10:06:42.959Z,9.27
2018-12-31T10:09:12.033Z,10.60
2018-12-31T10:11:39.687Z,7.97
2018-12-31T10:14:07.556Z,9.33
2018-12-31T10:16:35.129Z,7.70
2018-12-31T10:19:02.732Z,8.77
2018-12-31T10:21:30.382Z,8.80
2018-12-31T10:23:57.912Z,7.73
2018-12-31T10:26:25.486Z,7.63
2018-12-31T10:28:53.055Z,6.73
2018-12-31T10:31:21.418Z,5.87
2018-12-31T10:33:48.993Z,5.97
2018-12-31T10:36:17.364Z,6.43
2018-12-31T10:38:51.047Z,6.30
2018-12-31T10:41:13.966Z,6.43
2018-12-31T10:43:41.533Z,6.87
2018-12-31T10:46:09.947Z,6.50
2018-12-31T10:48:37.833Z,6.50
2018-12-31T10:51:05.407Z,8.63
2018-12-31T10:53:34.155Z,9.15
2018-12-31T10:56:01.702Z,8.30
2018-12-31T10:58:29.290Z,6.90
2018-12-31T11:00:57.103Z,6.57
2018-12-31T11:03:25.447Z,5.53
2018-12-31T11:05:53.080Z,6.47
2018-12-31T11:08:20.658Z,6.30
2018-12-31T11:10:48.224Z,6.03
2018-12-31T11:13:15.827Z,7.60
2018-12-31T11:15:43.403Z,7.03
2018-12-31T11:18:10.972Z,5.90
2018-12-31T11:20:38.573Z,5.70
2018-12-31T11:23:06.151Z,5.77
2018-12-31T11:25:34.520Z,6.37
2018-12-31T11:28:02.098Z,7.10
2018-12-31T11:30:31.257Z,6.77
2018-12-31T11:32:58.031Z,6.97
2018-12-31T11:35:26.666Z,6.33
2018-12-31T11:37:54.262Z,6.70
2018-12-31T11:40:21.817Z,7.00
2018-12-31T11:42:49.478Z,6.13
2018-12-31T11:45:17.091Z,7.00
2018-12-31T11:47:45.022Z,7.97
2018-12-31T11:50:12.604Z,6.43
2018-12-31T11:52:40.947Z,8.00
2018-12-31T11:55:08.609Z,6.50
2018-12-31T11:57:36.896Z,7.28
2018-12-31T12:00:04.499Z,12.27
2018-12-31T12:02:32.076Z,8.23
2018-12-31T12:04:59.694Z,7.47
2018-12-31T12:07:27.338Z,13.57
2018-12-31T12:09:54.881Z,18.00
2018-12-31T12:12:23.114Z,14.60
2018-12-31T12:14:51.464Z,11.00
2018-12-31T12:17:19.042Z,7.73
2018-12-31T12:19:46.646Z,6.63
2018-12-31T12:22:14.227Z,7.30
2018-12-31T12:24:41.821Z,7.20
2018-12-31T12:27:09.401Z,6.43
2018-12-31T12:29:37.795Z,6.43
2018-12-31T12:32:06.130Z,6.50
2018-12-31T12:34:33.709Z,7.40
2018-12-31T12:37:01.319Z,9.10
2018-12-31T12:39:28.897Z,9.37
2018-12-31T12:41:56.498Z,7.90
2018-12-31T12:44:25.145Z,9.18
2018-12-31T12:46:52.752Z,8.93
2018-12-31T12:49:20.341Z,8.07
2018-12-31T12:51:48.662Z,6.63
2018-12-31T12:54:16.242Z,6.80
2018-12-31T12:56:43.827Z,6.10
2018-12-31T12:59:12.197Z,6.47
2018-12-31T13:01:39.771Z,7.13
2018-12-31T13:04:08.133Z,6.73
2018-12-31T13:06:36.473Z,6.50
2018-12-31T13:09:04.117Z,8.60
2018-12-31T13:11:31.694Z,8.67
2018-12-31T13:13:59.301Z,8.27
2018-12-31T13:16:27.639Z,9.80
2018-12-31T13:18:55.225Z,7.43
2018-12-31T13:21:22.826Z,6.60
2018-12-31T13:23:50.404Z,6.30
2018-12-31T13:26:17.974Z,5.73
2018-12-31T13:28:45.637Z,5.90
2018-12-31T13:31:13.938Z,6.73
2018-12-31T13:33:44.532Z,6.43
2018-12-31T13:36:12.107Z,5.97
2018-12-31T13:38:39.719Z,6.37
2018-12-31T13:41:08.088Z,6.10
2018-12-31T13:43:36.060Z,6.47
2018-12-31T13:46:03.642Z,8.15
2018-12-31T13:48:31.218Z,7.20
2018-12-31T13:50:58.826Z,7.10
2018-12-31T13:53:26.684Z,6.30
2018-12-31T13:55:54.288Z,5.80
2018-12-31T13:58:22.629Z,6.17
2018-12-31T14:00:50.236Z,6.13
2018-12-31T14:03:19.780Z,6.10
2018-12-31T14:05:46.455Z,6.30
2018-12-31T14:08:14.029Z,7.13
2018-12-31T14:10:41.602Z,6.80
2018-12-31T14:13:09.973Z,6.00
2018-12-31T14:15:38.717Z,7.00
2018-12-31T14:18:06.342Z,7.10
2018-12-31T14:20:34.700Z,6.30
2018-12-31T14:23:02.284Z,7.50
2018-12-31T14:25:30.664Z,8.47
2018-12-31T14:27:59.012Z,7.63
2018-12-31T14:30:26.632Z,10.20
2018-12-31T14:32:54.217Z,7.63
2018-12-31T14:35:21.788Z,8.53
2018-12-31T14:37:49.615Z,8.93
2018-12-31T14:40:17.183Z,8.40
2018-12-31T14:42:44.765Z,8.10
2018-12-31T14:45:12.366Z,8.40
2018-12-31T14:47:39.939Z,7.97
2018-12-31T14:50:08.885Z,8.07
2018-12-31T14:52:36.468Z,7.93
2018-12-31T14:55:04.070Z,8.50
2018-12-31T14:57:31.679Z,8.03
2018-12-31T14:59:59.629Z,7.53
2018-12-31T15:02:27.197Z,8.37
2018-12-31T15:04:54.785Z,8.43
2018-12-31T15:07:22.387Z,9.00
2018-12-31T15:09:49.983Z,11.50
2018-12-31T15:12:17.591Z,10.07
2018-12-31T15:14:45.936Z,9.93
2018-12-31T15:17:13.955Z,9.53
2018-12-31T15:19:41.494Z,8.70
2018-12-31T15:22:09.072Z,8.20
2018-12-31T15:24:37.457Z,8.50
2018-12-31T15:27:05.021Z,8.53
2018-12-31T15:29:33.685Z,9.13
2018-12-31T15:32:01.305Z,8.43
2018-12-31T15:34:29.615Z,8.83
2018-12-31T15:36:57.232Z,8.07
2018-12-31T15:39:24.809Z,10.13
2018-12-31T15:41:52.428Z,9.33
2018-12-31T15:44:20.771Z,7.87
2018-12-31T15:46:48.351Z,8.93
2018-12-31T15:49:15.965Z,8.20
2018-12-31T15:51:43.539Z,8.30
2018-12-31T15:54:11.134Z,8.17
2018-12-31T15:56:38.926Z,10.33
2018-12-31T15:59:07.297Z,12.70
2018-12-31T16:01:35.643Z,12.97
2018-12-31T16:04:03.282Z,12.57
2018-12-31T16:06:30.864Z,11.13
2018-12-31T16:08:58.737Z,11.57
2018-12-31T16:11:26.334Z,13.60
2018-12-31T16:13:54.682Z,12.47
2018-12-31T16:16:22.288Z,12.13
2018-12-31T16:18:49.861Z,9.93
2018-12-31T16:21:17.494Z,8.67
2018-12-31T16:23:45.073Z,9.93
2018-12-31T16:26:12.659Z,10.40
2018-12-31T16:28:55.924Z,11.20
2018-12-31T16:31:26.265Z,12.13
2018-12-31T16:33:53.887Z,9.63
2018-12-31T16:36:21.468Z,9.53
2018-12-31T16:38:49.044Z,9.90
2018-12-31T16:41:16.648Z,11.48
2018-12-31T16:43:44.260Z,10.53
2018-12-31T16:46:13.251Z,9.47
2018-12-31T16:48:39.767Z,8.17
2018-12-31T16:51:07.343Z,9.33
2018-12-31T16:53:34.953Z,9.10
2018-12-31T16:56:02.542Z,8.33
2018-12-31T16:58:30.155Z,9.23
2018-12-31T17:00:57.761Z,9.57
2018-12-31T17:03:25.398Z,9.43
2018-12-31T17:05:52.940Z,11.03
2018-12-31T17:08:20.930Z,12.20
2018-12-31T17:10:49.276Z,10.73
2018-12-31T17:13:16.909Z,10.40
2018-12-31T17:15:44.493Z,13.27
2018-12-31T17:18:12.075Z,10.40
2018-12-31T17:20:39.684Z,12.43
2018-12-31T17:23:07.273Z,11.80
2018-12-31T17:25:34.883Z,11.17
2018-12-31T17:28:03.229Z,12.80
2018-12-31T17:30:30.924Z,11.63
2018-12-31T17:32:58.494Z,10.37
2018-12-31T17:35:26.414Z,16.73
2018-12-31T17:37:53.992Z,11.80
2018-12-31T17:40:21.574Z,14.53
2018-12-31T17:42:50.733Z,15.87
2018-12-31T17:45:22.977Z,16.23
2018-12-31T17:47:46.165Z,16.47
2018-12-31T17:50:13.779Z,16.97
2018-12-31T17:52:41.361Z,14.43
2018-12-31T17:55:08.924Z,14.60
2018-12-31T17:57:39.780Z,13.57
2018-12-31T18:00:07.359Z,13.67
2018-12-31T18:02:34.932Z,13.40
2018-12-31T18:05:02.535Z,15.90
2018-12-31T18:07:30.118Z,13.40
2018-12-31T18:09:57.986Z,13.03
2018-12-31T18:12:25.559Z,11.83
2018-12-31T18:14:53.129Z,12.57
2018-12-31T18:17:20.756Z,12.73
2018-12-31T18:19:48.309Z,15.90
2018-12-31T18:22:15.918Z,14.33
2018-12-31T18:24:43.491Z,14.10
2018-12-31T18:27:11.130Z,13.07
2018-12-31T18:29:38.769Z,12.97
2018-12-31T18:32:06.268Z,12.63
2018-12-31T18:34:33.902Z,13.93
2018-12-31T18:37:01.501Z,19.50
2018-12-31T18:39:29.074Z,15.97
2018-12-31T18:41:57.442Z,16.73
2018-12-31T18:44:25.015Z,15.40
2018-12-31T18:46:53.374Z,15.50
2018-12-31T18:49:20.955Z,16.37
2018-12-31T18:51:49.321Z,15.10
2018-12-31T18:54:16.892Z,15.63
2018-12-31T18:56:45.030Z,14.70
2018-12-31T18:59:12.608Z,15.77
2018-12-31T19:01:40.183Z,17.60
2018-12-31T19:04:07.796Z,22.00
2018-12-31T19:06:35.364Z,18.30
2018-12-31T19:09:03.469Z,15.60
2018-12-31T19:11:31.044Z,17.87
2018-12-31T19:13:58.616Z,15.87
2018-12-31T19:16:26.983Z,15.30
2018-12-31T19:18:54.564Z,14.13
2018-12-31T19:21:22.932Z,14.67
2018-12-31T19:23:51.267Z,15.17
2018-12-31T19:26:18.847Z,15.17
2018-12-31T19:28:46.445Z,16.17
2018-12-31T19:31:14.022Z,14.17
2018-12-31T19:33:41.623Z,14.10
2018-12-31T19:36:09.201Z,14.17
2018-12-31T19:38:36.805Z,13.50
2018-12-31T19:41:04.376Z,14.90
2018-12-31T19:43:31.980Z,14.30
2018-12-31T19:45:59.590Z,14.00
2018-12-31T19:48:27.151Z,13.80
2018-12-31T19:50:54.737Z,13.87
2018-12-31T19:53:22.341Z,13.53
2018-12-31T19:55:49.905Z,13.50
2018-12-31T19:58:18.564Z,13.37
2018-12-31T20:00:45.867Z,12.90
2018-12-31T20:03:13.424Z,12.10
2018-12-31T20:05:41.823Z,12.17
2018-12-31T20:08:09.397Z,12.83
2018-12-31T20:10:37.003Z,15.20
2018-12-31T20:13:04.579Z,13.27
2018-12-31T20:15:32.531Z,15.48
2018-12-31T20:18:00.104Z,15.20
2018-12-31T20:20:27.683Z,13.17
2018-12-31T20:22:56.061Z,14.07
2018-12-31T20:25:23.638Z,14.10
2018-12-31T20:27:51.235Z,16.27
2018-12-31T20:30:18.809Z,16.70
2018-12-31T20:32:46.414Z,14.63
2018-12-31T20:35:14.758Z,19.80
2018-12-31T20:37:42.403Z,15.90
2018-12-31T20:40:09.974Z,15.80
2018-12-31T20:42:37.540Z,14.50
2018-12-31T20:45:05.122Z,14.73
2018-12-31T20:47:33.076Z,13.27
2018-12-31T20:50:00.715Z,12.93
2018-12-31T20:52:28.215Z,12.43
2018-12-31T20:54:55.818Z,16.10
2018-12-31T20:57:23.397Z,13.07
2018-12-31T20:59:50.989Z,12.60
2018-12-31T21:02:18.561Z,18.67
2018-12-31T21:04:46.157Z,17.00
2018-12-31T21:07:13.728Z,16.57
2018-12-31T21:09:41.928Z,17.47
2018-12-31T21:12:09.504Z,17.00
2018-12-31T21:14:37.118Z,15.67
2018-12-31T21:17:04.694Z,14.23
2018-12-31T21:19:32.278Z,14.03
2018-12-31T21:21:59.882Z,20.57
2018-12-31T21:24:28.222Z,16.20
2018-12-31T21:26:56.210Z,15.03
2018-12-31T21:29:23.789Z,17.90
2018-12-31T21:31:52.148Z,18.08
2018-12-31T21:34:19.766Z,13.77
2018-12-31T21:36:47.340Z,15.00
2018-12-31T21:39:14.940Z,13.97
2018-12-31T21:41:42.511Z,13.10
2018-12-31T21:44:10.892Z,18.83
2018-12-31T21:46:39.245Z,15.33
2018-12-31T21:49:07.118Z,15.33
2018-12-31T21:51:34.701Z,16.00
2018-12-31T21:54:02.283Z,16.83
2018-12-31T21:56:29.889Z,15.33
2018-12-31T21:58:57.471Z,58.03
2018-12-31T22:01:25.072Z,33.30
2018-12-31T22:03:52.673Z,18.77
2018-12-31T22:06:20.273Z,16.73
2018-12-31T22:08:48.647Z,15.57
2018-12-31T22:11:16.224Z,15.63
2018-12-31T22:13:43.810Z,15.13
2018-12-31T22:16:11.410Z,15.77
2018-12-31T22:18:38.982Z,16.50
2018-12-31T22:21:06.584Z,16.33
2018-12-31T22:23:34.161Z,16.27
2018-12-31T22:26:01.769Z,15.80
2018-12-31T22:28:29.340Z,16.67
2018-12-31T22:30:56.983Z,16.83
2018-12-31T22:33:25.283Z,17.90
2018-12-31T22:35:52.861Z,14.73
2018-12-31T22:38:21.285Z,14.83
2018-12-31T22:40:48.862Z,16.40
2018-12-31T22:43:16.443Z,16.10
2018-12-31T22:45:44.054Z,15.50
2018-12-31T22:48:11.630Z,16.00
2018-12-31T22:50:39.243Z,18.87
2018-12-31T22:53:07.596Z,40.73
2018-12-31T22:55:35.173Z,24.93
2018-12-31T22:58:02.776Z,36.28
2018-12-31T23:00:30.352Z,52.67
2018-12-31T23:02:57.951Z,90.37
2018-12-31T23:05:25.548Z,518.80
2018-12-31T23:07:53.477Z,510.30
2018-12-31T23:10:21.054Z,363.60
2018-12-31T23:12:48.887Z,164.67
2018-12-31T23:15:16.495Z,78.10
2018-12-31T23:17:44.843Z,80.00
2018-12-31T23:20:12.442Z,141.10
2018-12-31T23:22:40.978Z,134.80
2018-12-31T23:25:08.572Z,92.23
2018-12-31T23:27:36.182Z,132.70
2018-12-31T23:30:03.788Z,324.53
2018-12-31T23:32:31.370Z,104.77
2018-12-31T23:34:59.005Z,167.87
2018-12-31T23:37:26.571Z,135.47
2018-12-31T23:39:54.174Z,155.23
2018-12-31T23:42:21.780Z,160.05
2018-12-31T23:44:53.121Z,153.77
2018-12-31T23:47:16.988Z,151.37
2018-12-31T23:49:44.572Z,134.63
2018-12-31T23:52:12.188Z,131.60
2018-12-31T23:54:39.786Z,123.00
2018-12-31T23:57:07.361Z,115.60
2018-12-31T23:59:34.990Z,110.13
